Terminal Aerodrome Forecast
Issued by NWS

Home | Current Version | Previous Version | Graphics & Text | Print | Product List | Glossary On
Versions: 1 2 3 4 5 6 7 8 9 10 11 12
000
FTUS45 KGGW 201728
TAFSDY
TAF
KSDY 201728Z 2018/2118 27014KT P6SM SKC
     FM210000 19010KT P6SM SCT050
     FM210600 20007KT P6SM BKN050 WS020/25040KT
     FM211400 23008KT P6SM SCT040=

USA.gov is the U.S. government's official web portal to all federal, state and local government web resources and services.